SHMÚ 65 rokov / 1954-2019 - Ďakujeme našim partnerom


SHMÚ vydal meteorologické výstrahy na Vietor na horáchHmla Zobraziť výstrahy

SHMÚ vydal hydrologické výstrahy na   Povodeň Zobraziť výstrahy

TAF

Letisková predpoveď TAF

Informácie o správe TAF

15.11.2019 - 05:00 UTC

TAF LZIB 150500Z 1506/1606 11006KT 9999 FEW010 BKN022
    TEMPO 1506/1509 5000 BR SCT006 BKN015
    PROB40 TEMPO 1506/1507 1300 BCFG BKN004
    BECMG 1510/1512 SCT034 BKN062
    PROB30 TEMPO 1514/1521 12014KT -RA
    BECMG 1600/1602 SCT025 OVC070=
TAF LZKZ 150500Z 1506/1606 VRB02KT 9999 FEW035 BKN080
    TEMPO 1506/1512 6000 FEW015 BKN030
    PROB40 TEMPO 1506/1508 2500 -RA BR SCT008 BKN022
    BECMG 1512/1514 22006KT SCT040
    BECMG 1518/1520 VRB02KT
    TEMPO 1602/1606 3000 BR SCT004=
TAF LZTT 150500Z 1506/1606 VRB02KT 9999 SCT035
    TEMPO 1506/1510 3000 BR SCT007 BKN020
    PROB40 TEMPO 1506/1508 0800 -DZ FG BKN004
    BECMG 1510/1512 FEW030 BKN050
    TEMPO 1516/1600 -RA BKN028
    BECMG 1602/1604 14005KT BKN012=

15.11.2019 - 05:00 UTC

TAF LZSL 150500Z 1506/1515 VRB02KT 9999 BKN022
    TEMPO 1506/1509 5000 -DZ BR SCT009 BKN015
    PROB40 TEMPO 1506/1508 2200 BR BKN007
    BECMG 1510/1512 13008KT BKN040
    TEMPO 1512/1515 -RA=
TAF LZPP 150500Z 1506/1515 17006KT 9999 BKN020
    TEMPO 1506/1509 5000 BR OVC014
    PROB40 TEMPO 1506/1508 1400 BCFG BKN003
    BECMG 1509/1511 16012KT
    TEMPO 1511/1515 16015G25KT -RA BKN037=
TAF LZZI 150500Z 1506/1515 06005KT 9999 SCT034
    TEMPO 1506/1509 3000 BR SCT006 BKN025
    PROB30 TEMPO 1506/1507 0600 FG BKN002
    BECMG 1509/1511 17008KT FEW045 SCT070=

15.11.2019 - 02:00 UTC

TAF LZSL 150200Z 1503/1512 VRB02KT 9999 BKN022
    TEMPO 1503/1509 5000 -RA BR SCT011 BKN030
    PROB40 TEMPO 1503/1506 2200 BR BKN008
    BECMG 1510/1512 BKN040=
TAF LZZI 150200Z 1503/1512 VRB02KT 5000 BR SCT015 BKN040
    TEMPO 1503/1508 1700 BR SCT006 BKN025
    PROB40 TEMPO 1503/1506 0600 FG BKN002
    BECMG 1509/1511 04005KT 9999 SCT050=

skok na menu ↑


skok na začiatok stránky ↑